Latest Coastal Weather Observations for Noarlunga

IDS60701

Issued at 2:51 am CST Monday 2 May 2016 (issued every 10 minutes, with the page automatically refreshed every 10 minutes)

About coastal observations | Map of coastal stations | Coastal observations for SA | Marine services | Other Formats
Station Details ID: 023885 Name: NOARLUNGA Lat: -35.16 Lon: 138.51 Height: 55.0 m
Data from the previous 72 hours. | See also: Recent months at Noarlunga
Date/Time
CST
Temp

°C
Wind Pressure Rain
since 9am
mm
Weather Cloud Vis
km
Sea
Height
m
Swell
Dir
 
Speed
knots
Gust
knots
hPa Trend Height
m
Period
s
Dir
02/02:30am 15.5 NNW 11 18 - - 0.0 - - - - - - -
02/02:00am 15.5 NNW 12 17 - - 0.0 - - - - - - -
02/01:30am 15.3 NNW 8 13 - - 0.0 - - - - - - -
02/01:00am 15.1 NNW 6 9 - - 0.0 - - - - - - -
02/12:30am 15.3 NW 10 13 - - 0.0 - - - - - - -
02/12:00am 15.3 NW 8 12 - - 0.0 - - - - - - -
 
Date/Time
CST
Temp

°C
Wind Pressure Rain
since 9am
mm
Weather Cloud Vis
km
Sea
Height
m
Swell
Dir
 
Speed
knots
Gust
knots
hPa Trend Height
m
Period
s
Dir
01/11:30pm 15.5 NW 6 10 - - 0.0 - - - - - - -
01/11:00pm 15.4 WNW 5 10 - - 0.0 - - - - - - -
01/10:30pm 15.3 NW 4 7 - - 0.0 - - - - - - -
01/10:00pm 15.3 NW 7 10 - - 0.0 - - - - - - -
01/09:30pm 15.2 NW 7 12 - - 0.0 - - - - - - -
01/09:00pm 15.1 WNW 6 11 - - 0.0 - - - - - - -
01/08:30pm 14.9 WNW 5 8 - - 0.0 - - - - - - -
01/08:00pm 15.1 WNW 5 10 - - 0.0 - - - - - - -
01/07:30pm 15.2 NW 7 11 - - 0.0 - - - - - - -
01/07:00pm 15.4 WNW 3 5 - - 0.0 - - - - - - -
01/06:30pm 15.3 NW 3 5 - - 0.0 - - - - - - -
01/06:00pm 15.1 NW 2 3 - - 0.0 - - - - - - -
01/05:30pm 15.0 NW 2 4 - - 0.0 - - - - - - -
01/05:00pm 15.8 WNW 3 4 - - 0.0 - - - - - - -
01/04:30pm 16.7 NW 3 6 - - 0.0 - - - - - - -
01/04:00pm 17.1 NW 4 7 - - 0.0 - - - - - - -
01/03:30pm 17.0 W 6 10 - - 0.0 - - - - - - -
01/03:00pm 17.6 WSW 5 9 - - 0.0 - - - - - - -
01/02:30pm 17.1 W 7 12 - - 0.0 - - - - - - -
01/02:00pm 17.0 WSW 9 14 - - 0.0 - - - - - - -
01/01:30pm 17.0 SW 9 15 - - 0.0 - - - - - - -
01/01:00pm 16.2 WSW 10 15 - - 0.0 - - - - - - -
01/12:30pm 16.4 WSW 9 15 - - 0.0 - - - - - - -
01/12:00pm 16.9 WSW 10 16 - - 0.0 - - - - - - -
01/11:30am 16.5 SW 9 14 - - 0.0 - - - - - - -
01/11:00am 16.5 SW 11 18 - - 0.0 - - - - - - -
01/10:30am 16.0 WSW 14 22 - - 0.0 - - - - - - -
01/10:00am 15.9 WSW 14 23 - - 0.0 - - - - - - -
01/09:30am 15.6 WSW 14 23 - - 0.0 - - - - - - -
01/09:00am 15.0 WSW 14 22 - - 2.4 - - - - - - -
01/08:30am 14.6 WSW 14 23 - - 2.4 - - - - - - -
01/08:00am 14.1 WSW 13 21 - - 2.4 - - - - - - -
01/07:33am 14.0 WSW 15 25 - - 2.4 - - - - - - -
01/07:30am 14.1 WSW 16 25 - - 2.4 - - - - - - -
01/07:29am 14.0 WSW 15 25 - - 2.4 - - - - - - -
01/07:00am 13.5 W 13 21 - - 2.4 - - - - - - -
01/06:30am 13.7 WSW 16 28 - - 2.2 - - - - - - -
01/06:06am 14.0 WSW 15 28 - - 2.2 - - - - - - -
01/06:00am 13.8 WSW 13 26 - - 2.2 Recent precip. - - - - - -
01/05:37am 13.8 W 18 30 - - 2.2 - - - - - - -
01/05:30am 13.9 W 18 27 - - 2.2 - - - - - - -
01/05:23am 13.4 W 15 25 - - 2.2 - - - - - - -
01/05:00am 13.0 WNW 13 20 - - 1.4 - - - - - - -
01/04:34am 13.7 WNW 15 27 - - 1.2 - - - - - - -
01/04:30am 14.4 WNW 13 24 - - 1.2 - - - - - - -
01/04:00am 13.9 W 15 23 - - 1.2 - - - - - - -
01/03:34am 13.7 W 15 33 - - 1.2 - - - - - - -
01/03:30am 14.2 WNW 13 23 - - 1.2 - - - - - - -
01/03:00am 13.6 W 14 23 - - 0.8 Rain - - - - - -
01/02:44am 13.9 W 15 25 - - 0.4 - - - - - - -
01/02:30am 14.4 WNW 18 28 - - 0.4 - - - - - - -
01/02:00am 15.7 WNW 17 29 - - 0.0 - - - - - - -
01/01:34am 15.3 WNW 15 26 - - 0.0 - - - - - - -
01/01:30am 15.3 WNW 13 23 - - 0.0 - - - - - - -
01/01:00am 15.5 WNW 15 25 - - 0.0 - - - - - - -
01/12:30am 15.6 WNW 15 24 - - 0.0 - - - - - - -
01/12:00am 15.9 WNW 18 31 - - 0.0 - - - - - - -
 
Date/Time
CST
Temp

°C
Wind Pressure Rain
since 9am
mm
Weather Cloud Vis
km
Sea
Height
m
Swell
Dir
 
Speed
knots
Gust
knots
hPa Trend Height
m
Period
s
Dir
30/11:30pm 16.3 WNW 17 29 - - 0.0 - - - - - - -
30/11:00pm 16.2 WNW 17 29 - - 0.0 - - - - - - -
30/10:30pm 17.2 WNW 19 30 - - 0.0 - - - - - - -
30/10:00pm 17.0 WNW 19 29 - - 0.0 - - - - - - -
30/09:30pm 18.2 WNW 20 32 - - 0.0 - - - - - - -
30/09:00pm 18.3 WNW 18 37 - - 0.0 - - - - - - -
30/08:30pm 19.3 WNW 18 28 - - 0.0 - - - - - - -
30/08:00pm 20.1 WNW 19 35 - - 0.0 - - - - - - -
30/07:31pm 21.9 WNW 15 27 - - 0.0 - - - - - - -
30/07:30pm 21.9 WNW 14 27 - - 0.0 - - - - - - -
30/07:00pm 22.0 NW 13 23 - - 0.0 - - - - - - -
30/06:30pm 22.7 NNW 10 15 - - 0.0 - - - - - - -
30/06:00pm 23.0 N 11 16 - - 0.0 - - - - - - -
30/05:30pm 23.1 N 10 15 - - 0.0 - - - - - - -
30/05:00pm 23.6 N 11 16 - - 0.0 - - - - - - -
30/04:30pm 24.1 N 10 17 - - 0.0 - - - - - - -
30/04:00pm 24.3 N 13 20 - - 0.0 - - - - - - -
30/03:30pm 24.3 N 13 20 - - 0.0 - - - - - - -
30/03:00pm 24.2 NNW 16 24 - - 0.0 - - - - - - -
30/02:30pm 24.7 N 15 24 - - 0.0 - - - - - - -
30/02:00pm 24.7 N 15 23 - - 0.0 - - - - - - -
30/01:30pm 24.4 N 16 23 - - 0.0 - - - - - - -
30/01:00pm 24.3 NNW 15 22 - - 0.0 - - - - - - -
30/12:30pm 23.9 N 15 23 - - 0.0 - - - - - - -
30/12:00pm 23.7 N 15 22 - - 0.0 - - - - - - -
30/11:43am 23.9 N 17 27 - - 0.0 - - - - - - -
30/11:30am 23.4 N 16 23 - - 0.0 - - - - - - -
30/11:16am 22.9 N 15 26 - - 0.0 - - - - - - -
30/11:00am 22.6 N 15 23 - - 0.0 - - - - - - -
30/10:30am 21.7 N 13 19 - - 0.0 - - - - - - -
30/10:00am 20.8 N 11 16 - - 0.0 - - - - - - -
30/09:30am 20.4 N 8 13 - - 0.0 - - - - - - -
30/09:00am 19.1 N 11 16 - - 0.0 - - - - - - -
30/08:30am 18.0 N 11 15 - - 0.0 - - - - - - -
30/08:00am 16.6 NNE 9 11 - - 0.0 - - - - - - -
30/07:30am 15.7 NNE 9 13 - - 0.0 - - - - - - -
30/07:00am 15.2 NNE 7 10 - - 0.0 - - - - - - -
30/06:30am 15.3 N 10 13 - - 0.0 - - - - - - -
30/06:00am 15.4 N 11 15 - - 0.0 - - - - - - -
30/05:30am 15.3 NNE 9 13 - - 0.0 - - - - - - -
30/05:00am 15.8 N 9 12 - - 0.0 - - - - - - -
30/04:30am 15.4 N 8 11 - - 0.0 - - - - - - -
30/04:00am 15.5 N 6 9 - - 0.0 - - - - - - -
30/03:30am 15.6 N 6 10 - - 0.0 - - - - - - -
30/03:00am 15.7 NNE 5 8 - - 0.0 - - - - - - -
30/02:30am 17.6 NW 7 10 - - 0.0 - - - - - - -
30/02:00am 17.5 NW 7 10 - - 0.0 - - - - - - -
30/01:30am 15.6 NNW 3 5 - - 0.0 - - - - - - -
30/01:00am 16.2 N 5 6 - - 0.0 - - - - - - -
30/12:30am 16.3 N 5 7 - - 0.0 - - - - - - -
30/12:00am 16.3 N 6 7 - - 0.0 - - - - - - -
 
Date/Time
CST
Temp

°C
Wind Pressure Rain
since 9am
mm
Weather Cloud Vis
km
Sea
Height
m
Swell
Dir
 
Speed
knots
Gust
knots
hPa Trend Height
m
Period
s
Dir
29/11:30pm 16.6 N 5 7 - - 0.0 - - - - - - -
29/11:00pm 16.7 N 5 6 - - 0.0 - - - - - - -
29/10:30pm 16.6 N 5 6 - - 0.0 - - - - - - -
29/10:00pm 16.5 NNE 5 6 - - 0.0 - - - - - - -
29/09:30pm 16.7 NNE 4 5 - - 0.0 - - - - - - -
29/09:00pm 17.0 NNE 5 6 - - 0.0 - - - - - - -
29/08:30pm 17.6 NNE 4 6 - - 0.0 - - - - - - -
29/08:00pm 17.5 NE 5 7 - - 0.0 - - - - - - -
29/07:30pm 17.7 NE 4 6 - - 0.0 - - - - - - -
29/07:00pm 18.0 NE 4 6 - - 0.0 - - - - - - -
29/06:30pm 18.6 NNE 2 3 - - 0.0 - - - - - - -
29/06:00pm 19.2 N 2 3 - - 0.0 - - - - - - -
29/05:30pm 20.0 NNW 4 6 - - 0.0 - - - - - - -
29/05:00pm 20.7 NNW 5 7 - - 0.0 - - - - - - -
29/04:30pm 21.4 NNW 6 8 - - 0.0 - - - - - - -
29/04:00pm 22.1 NW 6 10 - - 0.0 - - - - - - -
29/03:30pm 21.6 NNW 8 11 - - 0.0 - - - - - - -
29/03:00pm 21.8 NNW 9 13 - - 0.0 - - - - - - -
29/02:30pm 21.2 NNW 9 13 - - 0.0 - - - - - - -
29/02:00pm 21.3 NNW 9 13 - - 0.0 - - - - - - -
29/01:30pm 21.2 NNW 9 13 - - 0.0 - - - - - - -
29/01:00pm 20.8 NNW 11 16 - - 0.0 - - - - - - -
29/12:30pm 21.0 NNW 9 14 - - 0.0 - - - - - - -
29/12:00pm 20.8 N 9 13 - - 0.0 - - - - - - -
29/11:30am 19.4 NNW 8 11 - - 0.0 - - - - - - -
29/11:00am 19.3 N 9 11 - - 0.0 - - - - - - -
29/10:30am 18.8 NNW 5 8 - - 0.0 - - - - - - -
29/10:00am 18.2 N 6 9 - - 0.0 - - - - - - -
29/09:30am 17.7 NNW 7 9 - - 0.0 - - - - - - -
29/09:00am 17.4 N 5 10 - - 3.4 Recent precip. - - - - - -
29/08:30am 17.3 N 5 8 - - 3.4 - - - - - - -
29/08:00am 17.1 N 3 4 - - 3.2 - - - - - - -
29/07:30am 17.0 N 4 7 - - 3.2 - - - - - - -
29/07:00am 16.9 NNW 5 7 - - 3.2 - - - - - - -
29/06:30am 17.1 NNW 6 8 - - 3.2 - - - - - - -
29/06:00am 16.9 N 3 4 - - 3.2 Recent precip. - - - - - -
29/05:30am 16.9 N 2 4 - - 3.2 - - - - - - -
29/05:00am 17.3 NW 5 7 - - 2.8 - - - - - - -
29/04:30am 18.0 NW 5 8 - - 1.8 - - - - - - -
29/04:00am 18.5 NW 5 7 - - 1.6 - - - - - - -
29/03:30am 18.8 NNW 6 9 - - 1.4 - - - - - - -
29/03:00am 19.9 NW 10 16 - - 1.0 - - - - - - -

Other Formats:

Comma delimited format used in spreadsheet applications
http://www.bom.gov.au/fwo/IDS60701/IDS60701.94808.axf

JavaScript Object Notation format (JSON) in row-major order
http://www.bom.gov.au/fwo/IDS60701/IDS60701.94808.json